Time;durP1;ratioP1;P1;durP2;ratioP2;P2;SDS_P1;SDS_P2;PMS_P1;PMS_P2;Temp;Humidity;BMP_temperature;BMP_pressure;BME280_temperature;BME280_humidity;BME280_pressure;Samples;Min_cycle;Max_cycle;Signal;HPM_P1;HPM_P2
2022/05/21 00:01:53;;;;;;;13.48;8.80;;;10.60;99.90;;;;;;5066031;28;20046;-58
2022/05/21 00:04:19;;;;;;;14.68;8.75;;;10.60;99.90;;;;;;5066271;28;20052;-59
2022/05/21 00:06:45;;;;;;;14.23;10.88;;;10.60;99.90;;;;;;5067811;28;20052;-49
2022/05/21 00:09:12;;;;;;;15.73;12.70;;;10.60;99.90;;;;;;5068700;28;20075;-47
2022/05/21 00:11:39;;;;;;;19.45;13.55;;;10.70;99.90;;;;;;5049525;28;20056;-49
2022/05/21 00:14:05;;;;;;;23.13;15.82;;;10.60;99.90;;;;;;5066635;28;20079;-48
2022/05/21 00:16:32;;;;;;;20.65;17.27;;;10.70;99.90;;;;;;5067972;28;20125;-48
2022/05/21 00:18:58;;;;;;;24.88;17.27;;;10.70;99.90;;;;;;5065790;28;20049;-58
2022/05/21 00:21:24;;;;;;;24.23;20.17;;;10.70;99.90;;;;;;5082480;28;20045;-49
2022/05/21 00:23:51;;;;;;;25.35;22.35;;;10.70;99.90;;;;;;5066920;28;20120;-51
2022/05/21 00:26:17;;;;;;;32.03;23.15;;;10.70;99.90;;;;;;5067487;28;20401;-47
2022/05/21 00:28:46;;;;;;;30.52;24.13;;;10.70;99.90;;;;;;5066639;28;20072;-52
2022/05/21 00:31:14;;;;;;;33.80;25.13;;;10.70;99.90;;;;;;5066081;28;20788;-47
2022/05/21 00:33:42;;;;;;;34.92;27.17;;;10.70;99.90;;;;;;5066286;28;20731;-50
2022/05/21 00:36:08;;;;;;;36.67;28.33;;;10.70;99.90;;;;;;5067352;28;20052;-49
2022/05/21 00:38:36;;;;;;;36.88;29.95;;;10.70;99.90;;;;;;5067637;28;20079;-57
2022/05/21 00:41:03;;;;;;;37.90;31.25;;;10.80;99.90;;;;;;5049014;28;20771;-48
2022/05/21 00:43:46;;;;;;;43.20;31.70;;;10.80;99.90;;;;;;5065009;28;20052;-48
2022/05/21 00:46:12;;;;;;;41.70;33.70;;;10.90;99.90;;;;;;5066378;28;20052;-58
2022/05/21 00:48:40;;;;;;;44.00;32.97;;;10.90;99.90;;;;;;5048158;28;20052;-57
2022/05/21 00:51:12;;;;;;;42.30;34.45;;;11.00;99.90;;;;;;5064820;28;20067;-58
2022/05/21 00:53:39;;;;;;;44.40;32.95;;;11.10;99.90;;;;;;5064785;28;20527;-58
2022/05/21 00:56:06;;;;;;;47.90;35.30;;;11.10;99.90;;;;;;5082045;28;20166;-59
2022/05/21 01:01:17;;;;;;;45.88;33.80;;;11.10;99.90;;;;;;5066387;28;20046;-58
2022/05/21 01:03:44;;;;;;;47.92;33.83;;;11.10;99.90;;;;;;5065453;28;20060;-58
2022/05/21 01:06:11;;;;;;;46.03;36.10;;;11.10;99.90;;;;;;5048653;28;20497;-58
2022/05/21 01:08:38;;;;;;;53.05;38.60;;;11.10;99.90;;;;;;5066510;28;20056;-58
2022/05/21 01:11:13;;;;;;;53.03;38.83;;;11.10;99.90;;;;;;5065323;28;20056;-46
2022/05/21 01:13:41;;;;;;;47.55;38.55;;;11.10;99.90;;;;;;5031898;28;20055;-46
2022/05/21 01:16:10;;;;;;;52.38;39.65;;;11.10;99.90;;;;;;5047783;28;20056;-52
2022/05/21 01:18:37;;;;;;;53.90;41.72;;;11.30;99.90;;;;;;5067145;28;20539;-49
2022/05/21 01:21:03;;;;;;;57.47;40.90;;;11.30;99.90;;;;;;5085541;28;20064;-58
2022/05/21 01:23:30;;;;;;;52.63;39.53;;;11.40;99.90;;;;;;5050926;28;20602;-59
2022/05/21 01:25:58;;;;;;;48.13;38.97;;;11.40;99.90;;;;;;5068036;28;20048;-52
2022/05/21 01:28:26;;;;;;;48.42;36.88;;;11.50;99.90;;;;;;5051600;28;20130;-47
2022/05/21 01:30:59;;;;;;;49.58;37.17;;;11.50;99.90;;;;;;5068502;28;20052;-51
2022/05/21 01:33:33;;;;;;;44.67;37.80;;;11.50;99.90;;;;;;5087069;28;20461;-48
2022/05/21 01:35:59;;;;;;;46.78;38.05;;;11.50;99.90;;;;;;5067965;28;20047;-49
2022/05/21 01:38:27;;;;;;;48.97;37.92;;;11.60;99.90;;;;;;5078928;28;20056;-50
2022/05/21 01:40:54;;;;;;;45.92;38.22;;;11.60;99.90;;;;;;5085438;28;20132;-58
2022/05/21 01:46:05;;;;;;;43.75;38.08;;;11.60;99.90;;;;;;5085865;28;20048;-58
2022/05/21 01:48:33;;;;;;;51.33;38.38;;;11.60;99.90;;;;;;5085523;28;20091;-58
2022/05/21 01:50:59;;;;;;;53.90;41.45;;;11.70;99.90;;;;;;5086121;28;20058;-57
2022/05/21 01:53:26;;;;;;;50.35;40.05;;;11.70;99.90;;;;;;5050968;28;20155;-57
2022/05/21 01:55:53;;;;;;;51.92;43.25;;;11.60;99.90;;;;;;5084447;28;20067;-58
2022/05/21 01:58:20;;;;;;;53.42;44.28;;;11.60;99.90;;;;;;5067514;28;20052;-58
2022/05/21 02:00:46;;;;;;;59.35;44.97;;;11.60;99.90;;;;;;5085879;28;20044;-48
2022/05/21 02:03:14;;;;;;;60.25;46.53;;;11.60;99.90;;;;;;5050537;28;20048;-46
2022/05/21 02:05:44;;;;;;;60.60;47.13;;;11.70;99.90;;;;;;5085054;28;20054;-48
2022/05/21 02:08:12;;;;;;;56.90;46.10;;;11.70;99.90;;;;;;5085218;28;20059;-47
2022/05/21 02:10:39;;;;;;;67.40;48.95;;;11.70;99.90;;;;;;5050276;28;20054;-45
2022/05/21 02:13:06;;;;;;;66.95;48.17;;;11.70;99.90;;;;;;5066473;28;20101;-57
2022/05/21 02:15:32;;;;;;;61.70;49.58;;;11.80;99.90;;;;;;5049846;28;20052;-57
2022/05/21 02:17:58;;;;;;;60.08;49.28;;;11.70;99.90;;;;;;5085418;28;20055;-57
2022/05/21 02:20:24;;;;;;;62.15;49.83;;;11.80;99.90;;;;;;5066533;28;20594;-48
2022/05/21 02:22:50;;;;;;;61.97;50.08;;;11.90;99.90;;;;;;5066272;28;20052;-46
2022/05/21 02:25:18;;;;;;;59.83;48.63;;;11.90;99.90;;;;;;5050125;28;20116;-50
2022/05/21 02:27:44;;;;;;;55.00;46.78;;;11.90;99.90;;;;;;5084227;28;20150;-49
2022/05/21 02:30:11;;;;;;;61.45;47.65;;;11.90;99.90;;;;;;5067065;28;20398;-46
2022/05/21 02:32:37;;;;;;;57.47;46.55;;;11.90;99.90;;;;;;5085356;28;20146;-57
2022/05/21 02:35:04;;;;;;;58.47;49.00;;;12.00;99.90;;;;;;5050224;28;20062;-56
2022/05/21 02:40:14;;;;;;;54.00;45.35;;;12.10;99.90;;;;;;5083533;28;20048;-57
2022/05/21 02:42:43;;;;;;;53.40;45.63;;;12.10;99.90;;;;;;5066126;28;20040;-57
2022/05/21 02:45:12;;;;;;;56.25;46.92;;;12.00;99.90;;;;;;5050492;28;20706;-48
2022/05/21 02:47:38;;;;;;;53.35;46.25;;;12.10;99.90;;;;;;5084453;28;20055;-49
2022/05/21 02:50:06;;;;;;;52.38;43.90;;;12.10;99.90;;;;;;5066757;28;20059;-47
2022/05/21 02:52:32;;;;;;;53.15;45.28;;;12.10;99.90;;;;;;5077543;28;20046;-48
2022/05/21 02:54:58;;;;;;;54.08;46.10;;;12.10;99.90;;;;;;5084788;28;20408;-50
2022/05/21 02:57:25;;;;;;;54.83;46.15;;;12.10;99.90;;;;;;5085471;28;20056;-46
2022/05/21 02:59:51;;;;;;;51.65;44.13;;;12.10;99.90;;;;;;5085455;28;20056;-51
2022/05/21 03:02:19;;;;;;;50.67;43.08;;;12.10;99.90;;;;;;5085402;28;20516;-58
2022/05/21 03:04:45;;;;;;;52.83;42.03;;;12.20;99.90;;;;;;5084578;28;20085;-59
2022/05/21 03:07:11;;;;;;;53.08;42.55;;;12.20;99.90;;;;;;5066254;28;20059;-55
2022/05/21 03:12:23;;;;;;;52.88;43.58;;;12.20;99.90;;;;;;5084355;28;20062;-50
2022/05/21 03:14:49;;;;;;;51.80;41.10;;;12.20;99.90;;;;;;5065315;28;20060;-46
2022/05/21 03:17:15;;;;;;;49.30;41.45;;;12.20;99.90;;;;;;5066113;28;20075;-48
2022/05/21 03:19:41;;;;;;;55.58;39.63;;;12.20;99.90;;;;;;5065504;28;20060;-57
2022/05/21 03:22:08;;;;;;;49.17;39.67;;;12.20;99.90;;;;;;5065430;28;20054;-46
2022/05/21 03:24:34;;;;;;;51.90;39.28;;;12.20;99.90;;;;;;5083573;28;20046;-51
2022/05/21 03:27:00;;;;;;;44.03;38.17;;;12.20;99.90;;;;;;5084043;28;20044;-50
2022/05/21 03:29:26;;;;;;;48.30;38.88;;;12.30;99.90;;;;;;5066510;28;20703;-51
2022/05/21 03:31:52;;;;;;;50.67;38.83;;;12.20;99.90;;;;;;5084480;28;20047;-57
2022/05/21 03:34:19;;;;;;;48.60;37.83;;;12.20;99.90;;;;;;5049995;28;20068;-56
2022/05/21 03:36:45;;;;;;;48.15;36.20;;;12.30;99.90;;;;;;5065786;28;20467;-50
2022/05/21 03:39:11;;;;;;;46.55;34.63;;;12.30;99.90;;;;;;5084552;28;20557;-50
2022/05/21 03:41:37;;;;;;;42.70;33.35;;;12.30;99.90;;;;;;5084057;28;20051;-49
2022/05/21 03:44:04;;;;;;;41.80;32.88;;;12.30;99.90;;;;;;5083591;28;20056;-48
2022/05/21 03:46:30;;;;;;;40.95;29.10;;;12.40;99.90;;;;;;5065428;28;20047;-47
2022/05/21 03:48:56;;;;;;;40.28;29.45;;;12.40;99.90;;;;;;5048429;28;20127;-57
2022/05/21 03:51:22;;;;;;;39.88;27.45;;;12.50;99.90;;;;;;5049016;28;20044;-58
2022/05/21 03:53:48;;;;;;;39.22;26.55;;;12.50;99.90;;;;;;5066041;28;20062;-57
2022/05/21 03:56:14;;;;;;;38.90;25.88;;;12.50;99.90;;;;;;5066081;28;20906;-45
2022/05/21 03:58:41;;;;;;;34.13;22.90;;;12.60;99.90;;;;;;5083938;28;20052;-58
2022/05/21 04:01:08;;;;;;;33.13;22.13;;;12.60;99.90;;;;;;5065976;28;20571;-47
2022/05/21 04:03:34;;;;;;;34.90;21.98;;;12.60;99.90;;;;;;5065768;28;20121;-57
2022/05/21 04:06:00;;;;;;;35.55;22.02;;;12.70;99.90;;;;;;5049318;28;20052;-58
2022/05/21 04:08:26;;;;;;;31.77;22.17;;;12.70;99.90;;;;;;5065871;28;20051;-58
2022/05/21 04:10:53;;;;;;;30.00;20.33;;;12.70;99.90;;;;;;5065636;28;20063;-58
2022/05/21 04:13:20;;;;;;;35.40;20.17;;;12.70;99.90;;;;;;5065246;28;20052;-56
2022/05/21 04:15:46;;;;;;;36.97;21.70;;;12.70;99.90;;;;;;5048833;28;20052;-56
2022/05/21 04:18:13;;;;;;;36.65;19.65;;;12.70;99.90;;;;;;5065679;28;20742;-56
2022/05/21 04:20:42;;;;;;;31.13;18.35;;;12.70;99.90;;;;;;5065429;28;20424;-57
2022/05/21 04:23:08;;;;;;;39.20;17.65;;;12.70;99.90;;;;;;5048754;28;20046;-57
2022/05/21 04:25:34;;;;;;;35.75;18.20;;;12.70;99.90;;;;;;5065537;28;20093;-47
2022/05/21 04:28:00;;;;;;;32.33;16.90;;;12.80;99.90;;;;;;5065030;28;20052;-45
2022/05/21 04:30:28;;;;;;;30.77;15.20;;;12.70;99.90;;;;;;5083553;28;20890;-53
2022/05/21 04:32:56;;;;;;;28.80;12.73;;;12.80;99.90;;;;;;5083714;28;20897;-51
2022/05/21 04:35:24;;;;;;;23.98;11.00;;;12.80;99.90;;;;;;5069013;28;20051;-47
2022/05/21 04:37:51;;;;;;;20.50;10.20;;;12.90;99.90;;;;;;5068809;28;20048;-51
2022/05/21 04:40:21;;;;;;;25.25;9.75;;;12.90;99.90;;;;;;5069055;28;20059;-48
2022/05/21 04:42:47;;;;;;;20.35;7.22;;;12.90;99.90;;;;;;5086860;28;20048;-49
2022/05/21 04:45:15;;;;;;;27.83;7.40;;;12.90;99.90;;;;;;5068683;28;20627;-49
2022/05/21 04:47:41;;;;;;;19.35;7.00;;;12.90;99.90;;;;;;5087016;28;20054;-51
2022/05/21 04:50:08;;;;;;;21.58;6.75;;;12.90;99.90;;;;;;5087344;28;20131;-45
2022/05/21 04:52:36;;;;;;;18.85;6.03;;;12.90;99.90;;;;;;5087206;28;20052;-49
2022/05/21 04:55:07;;;;;;;23.80;6.07;;;12.90;99.90;;;;;;5086922;28;20508;-57
2022/05/21 04:57:33;;;;;;;25.90;6.40;;;12.90;99.90;;;;;;5087025;28;20384;-48
2022/05/21 05:00:00;;;;;;;21.33;6.07;;;13.00;99.90;;;;;;5068300;28;20048;-46
2022/05/21 05:02:27;;;;;;;20.13;6.10;;;13.00;99.90;;;;;;5068385;28;20052;-46
2022/05/21 05:04:53;;;;;;;12.75;5.15;;;13.10;99.90;;;;;;5068576;28;20457;-57
2022/05/21 05:07:19;;;;;;;21.48;5.97;;;13.10;99.90;;;;;;5087395;28;20059;-57
2022/05/21 05:09:46;;;;;;;22.15;5.93;;;13.10;99.90;;;;;;5086681;28;20059;-57
2022/05/21 05:12:13;;;;;;;22.90;6.20;;;13.20;99.90;;;;;;5087070;28;20130;-57
2022/05/21 05:14:41;;;;;;;18.92;5.63;;;13.20;99.90;;;;;;5068518;28;20048;-57
2022/05/21 05:17:11;;;;;;;21.45;5.72;;;13.40;99.90;;;;;;5051357;28;20056;-57
2022/05/21 05:19:38;;;;;;;15.45;5.25;;;13.60;99.90;;;;;;5085886;28;20060;-58
2022/05/21 05:22:05;;;;;;;20.30;5.47;;;13.80;99.90;;;;;;5068381;28;20408;-57
2022/05/21 05:24:31;;;;;;;19.08;5.10;;;14.00;99.90;;;;;;5086466;28;20036;-58
2022/05/21 05:26:57;;;;;;;15.70;5.28;;;14.00;99.90;;;;;;5086099;28;20044;-48
2022/05/21 05:29:23;;;;;;;14.75;4.97;;;14.10;99.90;;;;;;5067527;28;20056;-46
2022/05/21 05:31:49;;;;;;;15.82;4.20;;;14.00;99.90;;;;;;5067682;28;20055;-46
2022/05/21 05:34:15;;;;;;;15.32;4.30;;;14.00;99.90;;;;;;5067369;28;20052;-52
2022/05/21 05:36:41;;;;;;;13.52;4.35;;;14.10;99.90;;;;;;5067296;28;20055;-58
2022/05/21 05:39:07;;;;;;;17.55;4.43;;;14.20;99.90;;;;;;5067474;28;20091;-57
2022/05/21 05:41:36;;;;;;;15.63;3.85;;;14.10;99.90;;;;;;5086119;28;20447;-57
2022/05/21 05:44:03;;;;;;;14.48;4.35;;;14.20;99.90;;;;;;5085322;28;20082;-45
2022/05/21 05:46:29;;;;;;;15.23;4.07;;;14.30;99.90;;;;;;5084261;28;20048;-50
2022/05/21 05:48:55;;;;;;;20.88;5.47;;;14.30;99.90;;;;;;5085801;28;20048;-47
2022/05/21 05:51:21;;;;;;;12.60;4.45;;;14.40;99.90;;;;;;5086004;28;20457;-46
2022/05/21 05:53:48;;;;;;;11.13;3.72;;;14.40;99.90;;;;;;5034571;28;20126;-52
2022/05/21 05:56:15;;;;;;;14.27;3.85;;;14.30;99.90;;;;;;5085906;28;20512;-49
2022/05/21 06:01:26;;;;;;;14.05;4.05;;;14.30;99.90;;;;;;5051063;28;20047;-52
2022/05/21 06:03:53;;;;;;;14.43;4.15;;;14.50;99.90;;;;;;5085953;28;20040;-51
2022/05/21 06:06:19;;;;;;;15.20;3.72;;;14.50;99.90;;;;;;5067530;28;20066;-51
2022/05/21 06:08:46;;;;;;;12.82;4.10;;;14.60;99.90;;;;;;5050666;28;20059;-48
2022/05/21 06:11:13;;;;;;;11.63;3.50;;;14.90;99.90;;;;;;5067183;28;20054;-47
2022/05/21 06:13:39;;;;;;;12.32;3.78;;;15.00;99.90;;;;;;5067229;28;20149;-46
2022/05/21 06:16:06;;;;;;;14.07;3.75;;;15.20;99.90;;;;;;5085807;28;20059;-49
2022/05/21 06:18:32;;;;;;;14.25;3.78;;;15.30;99.90;;;;;;5066856;28;20056;-52
2022/05/21 06:21:00;;;;;;;15.35;3.45;;;15.40;99.90;;;;;;5067706;28;20786;-50
2022/05/21 06:23:27;;;;;;;14.07;3.40;;;15.60;99.90;;;;;;5085726;28;20040;-50
2022/05/21 06:25:53;;;;;;;15.18;3.78;;;15.50;99.90;;;;;;5066964;28;20073;-46
2022/05/21 06:28:19;;;;;;;12.63;3.45;;;15.40;99.90;;;;;;5085793;28;20491;-58
2022/05/21 06:30:46;;;;;;;13.63;3.90;;;15.40;99.90;;;;;;5066956;28;20157;-58
2022/05/21 06:33:23;;;;;;;10.68;3.22;;;15.60;99.90;;;;;;5085122;28;20082;-47
2022/05/21 06:36:00;;;;;;;17.38;4.18;;;15.50;99.90;;;;;;5050315;28;20882;-47
2022/05/21 06:38:26;;;;;;;12.73;2.90;;;15.30;99.90;;;;;;5084915;28;20054;-48
2022/05/21 06:40:52;;;;;;;15.93;3.67;;;15.60;99.90;;;;;;5084636;28;20048;-47
2022/05/21 06:43:20;;;;;;;12.38;3.08;;;15.80;99.90;;;;;;5049377;28;20134;-48
2022/05/21 06:45:46;;;;;;;12.07;3.28;;;15.80;99.90;;;;;;5066048;28;20047;-51
2022/05/21 06:48:12;;;;;;;11.55;3.22;;;16.00;99.90;;;;;;5084811;28;20518;-50
2022/05/21 06:50:39;;;;;;;13.73;3.65;;;16.20;99.90;;;;;;5084365;28;20044;-47
2022/05/21 06:53:05;;;;;;;11.57;3.38;;;16.20;99.90;;;;;;5049739;28;20117;-49
2022/05/21 06:55:32;;;;;;;10.73;3.00;;;16.40;99.90;;;;;;5085056;28;20733;-48
2022/05/21 06:57:58;;;;;;;11.70;3.25;;;16.40;99.90;;;;;;5066940;28;20052;-46
2022/05/21 07:00:24;;;;;;;11.15;3.03;;;16.20;99.90;;;;;;5083584;28;20060;-46
2022/05/21 07:02:53;;;;;;;12.63;2.97;;;16.00;99.90;;;;;;5050307;28;20056;-58
2022/05/21 07:08:13;;;;;;;13.57;3.25;;;16.30;99.90;;;;;;5066756;28;20059;-51
2022/05/21 07:10:39;;;;;;;7.68;2.72;;;16.70;99.90;;;;;;5066701;28;20052;-51
2022/05/21 07:13:05;;;;;;;12.05;3.42;;;16.70;99.90;;;;;;5084628;28;20166;-50
2022/05/21 07:15:31;;;;;;;10.68;3.15;;;16.90;99.90;;;;;;5049699;28;20154;-47
2022/05/21 07:18:00;;;;;;;13.63;3.55;;;17.00;99.90;;;;;;5084483;28;20509;-58
2022/05/21 07:20:27;;;;;;;11.27;3.22;;;16.90;99.90;;;;;;5063102;28;20883;-45
2022/05/21 07:22:54;;;;;;;9.82;3.03;;;16.90;99.90;;;;;;5063235;28;20592;-58
2022/05/21 07:25:23;;;;;;;12.85;2.80;;;16.80;99.90;;;;;;5064636;28;20048;-48
2022/05/21 07:27:50;;;;;;;12.13;2.97;;;17.10;99.90;;;;;;5063275;28;20099;-59
2022/05/21 07:30:17;;;;;;;10.55;3.13;;;17.20;99.90;;;;;;5063474;28;20095;-58
2022/05/21 07:32:44;;;;;;;11.63;2.75;;;17.10;99.90;;;;;;5064529;28;20045;-58
2022/05/21 07:35:15;;;;;;;12.80;2.78;;;17.10;99.90;;;;;;5064825;28;20743;-58
2022/05/21 07:37:42;;;;;;;11.77;2.90;;;17.40;99.90;;;;;;5029863;28;20059;-46
2022/05/21 07:40:09;;;;;;;15.93;2.92;;;17.20;99.90;;;;;;5045408;28;20470;-51
2022/05/21 07:42:36;;;;;;;11.48;2.58;;;17.20;99.90;;;;;;5063706;28;20120;-53
2022/05/21 07:45:06;;;;;;;10.77;3.33;;;17.40;99.90;;;;;;5063283;28;20034;-52
2022/05/21 07:47:32;;;;;;;9.93;2.70;;;16.90;99.90;;;;;;5060909;28;20097;-59
2022/05/21 07:49:58;;;;;;;11.65;3.03;;;16.70;99.90;;;;;;5063248;28;20572;-48
2022/05/21 07:52:29;;;;;;;10.60;2.67;;;16.70;99.90;;;;;;5046040;28;20131;-54
2022/05/21 07:54:56;;;;;;;9.50;2.50;;;16.50;99.90;;;;;;5063771;28;20774;-54
2022/05/21 07:57:22;;;;;;;11.90;2.50;;;16.60;99.90;;;;;;5063033;28;20447;-52
2022/05/21 07:59:49;;;;;;;5.93;2.00;;;17.30;99.90;;;;;;5063357;28;20052;-60
2022/05/21 08:02:17;;;;;;;9.98;2.30;;;17.10;99.90;;;;;;5062275;28;20079;-50
2022/05/21 08:04:48;;;;;;;11.85;2.30;;;16.80;99.90;;;;;;5062369;28;20056;-50
2022/05/21 08:07:15;;;;;;;8.55;2.38;;;16.60;99.90;;;;;;5046541;28;20514;-50
2022/05/21 08:09:42;;;;;;;10.93;2.20;;;17.10;99.90;;;;;;5067677;28;20055;-51
2022/05/21 08:12:12;;;;;;;12.80;2.50;;;17.50;99.90;;;;;;5067756;28;20052;-53
2022/05/21 08:14:42;;;;;;;8.38;2.50;;;17.20;99.90;;;;;;5067375;28;20144;-49
2022/05/21 08:17:10;;;;;;;7.70;1.77;;;17.00;99.90;;;;;;5050150;28;20056;-54
2022/05/21 08:19:37;;;;;;;9.68;2.28;;;16.60;99.90;;;;;;5083845;28;20078;-52
2022/05/21 08:27:32;;;;;;;9.73;2.38;;;17.30;99.90;;;;;;5069393;28;20044;-48
2022/05/21 08:29:58;;;;;;;7.55;2.45;;;17.80;99.90;;;;;;5088769;28;20055;-55
2022/05/21 08:32:24;;;;;;;11.13;1.88;;;18.30;99.90;;;;;;5107407;28;20032;-59
2022/05/21 08:34:53;;;;;;;10.77;2.40;;;18.20;99.90;;;;;;5089166;28;20047;-49
2022/05/21 08:37:20;;;;;;;9.93;2.05;;;17.80;99.90;;;;;;5072992;28;20048;-52
2022/05/21 08:39:47;;;;;;;13.60;2.22;;;17.70;99.90;;;;;;5094944;28;20059;-49
2022/05/21 08:42:30;;;;;;;11.25;2.50;;;17.40;99.90;;;;;;5069496;28;20137;-49
2022/05/21 08:45:24;;;;;;;9.40;2.35;;;17.50;99.90;;;;;;5087043;28;20055;-53
2022/05/21 08:48:02;;;;;;;7.30;2.17;;;17.50;99.90;;;;;;5085446;28;20044;-52
2022/05/21 08:50:33;;;;;;;10.25;2.40;;;17.10;99.90;;;;;;5069018;28;20047;-51
2022/05/21 08:53:08;;;;;;;9.27;2.45;;;17.70;99.90;;;;;;5079629;28;20062;-50
2022/05/21 08:55:50;;;;;;;11.25;2.30;;;18.20;99.90;;;;;;5088603;28;20100;-58
2022/05/21 08:58:34;;;;;;;7.93;2.17;;;17.80;99.90;;;;;;5106787;28;20087;-58
2022/05/21 09:01:00;;;;;;;9.25;1.95;;;17.70;99.90;;;;;;5101542;28;20514;-52
2022/05/21 09:03:27;;;;;;;8.88;2.30;;;18.10;99.90;;;;;;5068175;28;20432;-50
2022/05/21 09:06:06;;;;;;;8.25;1.92;;;18.50;99.90;;;;;;5086247;28;20085;-49
2022/05/21 09:09:00;;;;;;;7.10;1.75;;;18.80;99.90;;;;;;5092360;28;20055;-49
2022/05/21 09:11:35;;;;;;;8.43;2.30;;;19.10;99.90;;;;;;5088868;28;20043;-52
2022/05/21 09:14:22;;;;;;;10.55;2.30;;;19.30;99.90;;;;;;5106442;28;20046;-53
2022/05/21 09:16:56;;;;;;;7.78;1.90;;;19.70;99.90;;;;;;5106633;28;20040;-59
2022/05/21 09:19:34;;;;;;;10.20;2.85;;;18.80;99.90;;;;;;5078827;28;20781;-59
2022/05/21 09:22:07;;;;;;;7.28;1.70;;;18.30;99.90;;;;;;5078420;28;20400;-50
2022/05/21 09:24:37;;;;;;;9.32;2.33;;;18.40;99.90;;;;;;5106352;28;20043;-52
2022/05/21 09:27:20;;;;;;;9.93;2.45;;;18.00;99.90;;;;;;5106015;28;20078;-49
2022/05/21 09:29:47;;;;;;;8.20;1.80;;;18.00;99.90;;;;;;5105650;28;20042;-49
2022/05/21 09:32:39;;;;;;;8.43;2.20;;;17.70;99.90;;;;;;5080117;28;20059;-50
2022/05/21 09:35:11;;;;;;;10.77;2.38;;;17.80;99.90;;;;;;5104531;28;20043;-51
2022/05/21 09:37:39;;;;;;;10.48;2.35;;;17.70;99.90;;;;;;5076496;28;20048;-48
2022/05/21 09:40:34;;;;;;;7.45;1.77;;;17.90;99.90;;;;;;5092761;28;20551;-50
2022/05/21 09:46:26;;;;;;;8.48;2.30;;;18.50;99.90;;;;;;5091102;28;20102;-59
2022/05/21 09:48:54;;;;;;;7.22;1.98;;;18.40;99.90;;;;;;5084195;28;20055;-59
2022/05/21 09:51:22;;;;;;;9.35;2.13;;;18.00;99.90;;;;;;5097331;28;20144;-59
2022/05/21 09:53:48;;;;;;;7.53;2.22;;;18.00;99.90;;;;;;5087479;28;20054;-59
2022/05/21 09:56:32;;;;;;;9.93;2.42;;;17.90;99.90;;;;;;5105793;28;20507;-59
2022/05/21 09:59:30;;;;;;;9.13;2.13;;;17.80;99.90;;;;;;5104953;28;20156;-59
2022/05/21 10:02:01;;;;;;;9.15;1.80;;;17.70;99.90;;;;;;5075130;28;20063;-49
2022/05/21 10:04:36;;;;;;;8.77;1.50;;;17.60;99.90;;;;;;5086912;28;20058;-50
2022/05/21 10:11:00;;;;;;;7.47;1.92;;;17.80;99.90;;;;;;5066367;28;20123;-60
2022/05/21 10:13:29;;;;;;;11.43;2.33;;;17.70;99.90;;;;;;5085263;28;20495;-58
2022/05/21 10:16:40;;;;;;;9.07;2.00;;;17.90;99.90;;;;;;5085290;28;20047;-59
2022/05/21 10:19:45;;;;;;;9.25;2.15;;;18.40;99.90;;;;;;4988350;28;20049;-58
2022/05/21 10:22:25;;;;;;;6.88;1.70;;;18.80;99.90;;;;;;5022141;28;20132;-58
2022/05/21 10:25:19;;;;;;;11.35;1.92;;;18.70;99.90;;;;;;5073655;28;20054;-59
2022/05/21 10:28:12;;;;;;;9.32;2.33;;;18.50;99.90;;;;;;5084680;28;20070;-59
2022/05/21 10:30:58;;;;;;;8.70;2.05;;;18.00;99.90;;;;;;5103238;28;20391;-59
2022/05/21 10:33:27;;;;;;;9.15;1.77;;;18.10;99.90;;;;;;5087266;28;20492;-60
2022/05/21 10:36:12;;;;;;;9.85;2.33;;;18.60;99.90;;;;;;5086344;28;20044;-58
2022/05/21 10:39:13;;;;;;;5.13;1.48;;;19.30;99.90;;;;;;5097510;28;20798;-58
2022/05/21 10:41:48;;;;;;;7.88;2.20;;;19.70;99.90;;;;;;5050080;28;20137;-58
2022/05/21 10:44:32;;;;;;;7.07;1.90;;;19.80;99.90;;;;;;5086415;28;20079;-58
2022/05/21 10:47:04;;;;;;;8.57;2.13;;;19.50;99.90;;;;;;5067737;28;20048;-58
2022/05/21 10:49:54;;;;;;;6.38;1.50;;;19.60;99.90;;;;;;5084459;28;20140;-58
2022/05/21 10:52:41;;;;;;;7.75;1.60;;;19.10;99.90;;;;;;5066120;28;20606;-58
2022/05/21 10:55:41;;;;;;;8.85;2.20;;;20.00;99.90;;;;;;5084310;28;20047;-59
2022/05/21 10:58:19;;;;;;;6.38;1.90;;;20.40;99.90;;;;;;5073167;28;20530;-59
2022/05/21 11:01:01;;;;;;;6.80;1.65;;;21.00;99.90;;;;;;5085638;28;20386;-59
2022/05/21 11:03:40;;;;;;;6.97;1.85;;;20.90;99.90;;;;;;5105442;28;20593;-59
2022/05/21 11:06:18;;;;;;;7.72;1.52;;;20.90;99.90;;;;;;5091061;28;20078;-58
2022/05/21 11:08:55;;;;;;;9.70;1.75;;;20.70;99.90;;;;;;5049978;28;20051;-59
2022/05/21 11:12:02;;;;;;;7.32;1.50;;;21.20;99.90;;;;;;5068718;28;20082;-48
2022/05/21 11:14:43;;;;;;;8.02;1.83;;;21.50;99.90;;;;;;5066300;28;20111;-52
2022/05/21 11:17:21;;;;;;;6.65;1.77;;;21.10;99.90;;;;;;5084340;28;20146;-59
2022/05/21 11:20:12;;;;;;;5.25;1.40;;;21.60;99.90;;;;;;5087413;28;20047;-50
2022/05/21 11:23:10;;;;;;;5.28;1.30;;;22.00;99.90;;;;;;5069473;28;20044;-46
2022/05/21 11:25:46;;;;;;;5.13;1.20;;;21.00;99.90;;;;;;5045644;28;20484;-48
2022/05/21 11:28:18;;;;;;;5.28;1.30;;;21.40;99.90;;;;;;5066037;28;20571;-48
2022/05/21 11:30:45;;;;;;;7.65;1.42;;;21.30;99.90;;;;;;5081967;28;20764;-60
2022/05/21 11:39:10;;;;;;;5.55;1.30;;;21.20;99.90;;;;;;5064274;28;20050;-49
2022/05/21 11:42:07;;;;;;;6.60;1.45;;;21.30;99.90;;;;;;5079906;28;20086;-49
2022/05/21 11:44:55;;;;;;;3.42;1.05;;;21.60;97.70;;;;;;5089969;28;20465;-50
2022/05/21 11:47:28;;;;;;;4.15;1.02;;;21.40;97.60;;;;;;5070969;28;20093;-51
2022/05/21 11:49:57;;;;;;;5.35;1.30;;;21.40;98.10;;;;;;5071777;28;20047;-50
2022/05/21 11:52:26;;;;;;;7.95;1.80;;;21.50;99.90;;;;;;5088104;28;20087;-51
2022/05/21 11:54:53;;;;;;;4.32;1.20;;;21.40;97.60;;;;;;5099722;28;20059;-49
2022/05/21 11:57:46;;;;;;;4.63;1.33;;;20.80;98.10;;;;;;5079419;28;20048;-51
2022/05/21 12:00:18;;;;;;;7.30;1.50;;;21.00;99.90;;;;;;5088139;28;20043;-49
2022/05/21 12:02:53;;;;;;;5.10;1.15;;;21.40;99.90;;;;;;5093076;28;20513;-47
2022/05/21 12:05:35;;;;;;;7.50;1.80;;;21.70;99.90;;;;;;5080818;28;20039;-49
2022/05/21 12:08:30;;;;;;;8.48;2.22;;;21.30;99.90;;;;;;5063405;28;20044;-59
2022/05/21 12:11:06;;;;;;;7.03;2.17;;;21.90;99.90;;;;;;5089970;28;20039;-59
2022/05/21 12:13:35;;;;;;;6.35;1.42;;;22.20;97.90;;;;;;5089785;28;20488;-50
2022/05/21 12:16:21;;;;;;;6.32;1.40;;;21.90;98.10;;;;;;5066689;28;20055;-59
2022/05/21 12:18:55;;;;;;;7.78;2.00;;;22.40;98.20;;;;;;5087479;28;20077;-53
2022/05/21 12:21:30;;;;;;;12.70;3.20;;;22.30;99.90;;;;;;5070202;28;20048;-51
2022/05/21 12:23:56;;;;;;;7.55;1.83;;;22.70;99.50;;;;;;5095824;28;20047;-51
2022/05/21 12:26:33;;;;;;;7.60;1.98;;;23.00;99.90;;;;;;5090974;28;20063;-52
2022/05/21 12:29:09;;;;;;;4.80;1.65;;;23.10;98.60;;;;;;5089706;28;20127;-48
2022/05/21 12:31:42;;;;;;;6.97;1.63;;;23.00;97.70;;;;;;5108109;28;20475;-47
2022/05/21 12:34:23;;;;;;;6.50;1.30;;;22.60;95.90;;;;;;5080192;28;20056;-50
2022/05/21 12:37:10;;;;;;;6.50;1.35;;;22.40;82.40;;;;;;5087351;28;20067;-51
2022/05/21 12:40:05;;;;;;;6.35;1.42;;;21.70;97.00;;;;;;5052784;28;20032;-57
2022/05/21 12:42:47;;;;;;;5.53;1.30;;;22.20;99.70;;;;;;5054884;28;20059;-60
2022/05/21 12:45:30;;;;;;;6.45;1.63;;;22.90;98.50;;;;;;5069166;28;20631;-60
2022/05/21 12:48:18;;;;;;;6.78;1.88;;;22.50;95.40;;;;;;5107637;28;20089;-50
2022/05/21 12:50:59;;;;;;;7.28;1.30;;;22.40;98.40;;;;;;5107684;28;20380;-50
2022/05/21 12:53:46;;;;;;;5.43;1.50;;;22.20;97.20;;;;;;5062468;28;20036;-47
2022/05/21 12:56:12;;;;;;;4.32;1.25;;;22.40;96.60;;;;;;5051890;28;20039;-52
2022/05/21 12:58:39;;;;;;;6.57;1.65;;;21.90;95.10;;;;;;5097116;28;20472;-48
2022/05/21 13:01:05;;;;;;;5.55;1.27;;;22.10;98.90;;;;;;5101130;28;20460;-48
2022/05/21 13:03:34;;;;;;;7.90;1.90;;;22.50;99.10;;;;;;5051601;28;20114;-52
2022/05/21 13:06:07;;;;;;;7.38;2.00;;;22.30;99.90;;;;;;5057163;28;20043;-53
2022/05/21 13:08:36;;;;;;;9.60;2.22;;;22.90;99.90;;;;;;5061805;28;20475;-50
2022/05/21 13:11:04;;;;;;;8.38;2.10;;;22.80;97.20;;;;;;5107225;28;20532;-50
2022/05/21 13:13:40;;;;;;;5.65;1.40;;;23.10;99.20;;;;;;5107050;28;20583;-47
2022/05/21 13:16:13;;;;;;;9.85;1.70;;;23.30;92.90;;;;;;5103271;28;20080;-60
2022/05/21 13:19:05;;;;;;;6.93;1.73;;;23.30;89.10;;;;;;5081892;28;20043;-61
2022/05/21 13:22:01;;;;;;;6.40;1.38;;;22.70;99.90;;;;;;5050400;28;20098;-58
2022/05/21 13:24:45;;;;;;;8.05;1.98;;;22.60;97.10;;;;;;5053634;28;20043;-58
2022/05/21 13:27:18;;;;;;;6.57;1.60;;;21.70;98.40;;;;;;5051337;28;20075;-50
2022/05/21 13:29:45;;;;;;;8.95;1.98;;;20.90;99.90;;;;;;5084169;28;20389;-46
2022/05/21 13:32:18;;;;;;;8.02;1.58;;;20.40;99.90;;;;;;5091960;28;20052;-53